Time;durP1;ratioP1;P1;durP2;ratioP2;P2;SDS_P1;SDS_P2;PMS_P1;PMS_P2;Temp;Humidity;BMP_temperature;BMP_pressure;BME280_temperature;BME280_humidity;BME280_pressure;Samples;Min_cycle;Max_cycle;Signal;HPM_P1;HPM_P2
2022/01/03 00:01:39;;;;;;;12.70;5.53;;;;;;;9.52;100.00;100291.25;5092671;28;20153;-62
2022/01/03 00:04:06;;;;;;;11.85;4.90;;;;;;;9.55;100.00;100280.63;5092903;28;20431;-62
2022/01/03 00:06:34;;;;;;;18.05;5.45;;;;;;;9.59;100.00;100302.31;5092976;28;20028;-62
2022/01/03 00:09:01;;;;;;;17.85;5.15;;;;;;;9.64;100.00;100284.56;5092208;28;20024;-63
2022/01/03 00:11:26;;;;;;;12.15;4.45;;;;;;;9.65;100.00;100296.75;5074855;28;20046;-62
2022/01/03 00:13:52;;;;;;;11.73;4.63;;;;;;;9.62;100.00;100286.41;5090257;28;20390;-62
2022/01/03 00:16:18;;;;;;;15.30;4.22;;;;;;;9.55;100.00;100300.75;5092790;28;20439;-63
2022/01/03 00:18:43;;;;;;;11.52;4.40;;;;;;;9.42;100.00;100283.91;5096627;28;20068;-63
2022/01/03 00:21:16;;;;;;;11.05;4.72;;;;;;;9.48;100.00;100294.09;5110170;28;20560;-63
2022/01/03 00:23:56;;;;;;;11.98;5.05;;;;;;;9.48;100.00;100296.72;5097002;28;20442;-62
2022/01/03 00:26:27;;;;;;;19.25;5.40;;;;;;;9.44;100.00;100311.72;5078893;28;20036;-62
2022/01/03 00:28:56;;;;;;;17.55;5.35;;;;;;;9.48;100.00;100304.56;5096119;28;20047;-62
2022/01/03 00:31:41;;;;;;;16.02;4.95;;;;;;;9.44;100.00;100301.25;5096784;28;20036;-62
2022/01/03 00:34:08;;;;;;;20.52;4.75;;;;;;;9.47;100.00;100302.88;5096571;28;20035;-62
2022/01/03 00:36:34;;;;;;;15.88;5.78;;;;;;;9.45;100.00;100304.72;5092239;28;20444;-62
2022/01/03 00:39:00;;;;;;;16.67;6.35;;;;;;;9.42;100.00;100310.13;5096229;28;20032;-62
2022/01/03 00:41:25;;;;;;;17.75;5.18;;;;;;;9.48;100.00;100294.09;5095574;28;20103;-62
2022/01/03 00:43:52;;;;;;;8.82;4.15;;;;;;;9.46;100.00;100301.19;5095646;28;20470;-62
2022/01/03 00:46:21;;;;;;;12.02;4.63;;;;;;;9.48;100.00;100305.44;5096160;28;20024;-62
2022/01/03 00:48:47;;;;;;;22.70;5.70;;;;;;;9.49;100.00;100308.91;5096595;28;20032;-62
2022/01/03 00:51:17;;;;;;;8.05;3.72;;;;;;;9.27;100.00;100274.09;5095732;28;20047;-63
2022/01/03 00:53:42;;;;;;;20.58;4.65;;;;;;;9.38;100.00;100277.09;5095613;28;20488;-63
2022/01/03 00:56:18;;;;;;;27.27;4.95;;;;;;;9.58;100.00;100303.22;5096171;28;20051;-61
2022/01/03 00:58:52;;;;;;;14.30;5.13;;;;;;;9.60;100.00;100311.84;5077649;28;20020;-62
2022/01/03 01:01:22;;;;;;;12.85;3.03;;;;;;;9.61;100.00;100316.19;5096193;28;20039;-61
2022/01/03 01:03:54;;;;;;;14.75;5.00;;;;;;;9.60;100.00;100317.09;5095697;28;20016;-62
2022/01/03 01:06:22;;;;;;;9.25;4.15;;;;;;;9.59;100.00;100321.53;5096367;28;20040;-61
2022/01/03 01:08:54;;;;;;;11.85;4.95;;;;;;;9.63;100.00;100324.84;5095984;28;20024;-62
2022/01/03 01:11:25;;;;;;;18.02;5.70;;;;;;;9.61;100.00;100331.91;5095578;28;20028;-61
2022/01/03 01:13:50;;;;;;;14.88;4.47;;;;;;;9.63;100.00;100330.09;5087824;28;20367;-62
2022/01/03 01:16:19;;;;;;;15.57;4.70;;;;;;;9.60;100.00;100328.44;5095122;28;20032;-62
2022/01/03 01:18:45;;;;;;;21.70;4.53;;;;;;;9.61;100.00;100327.53;5095195;28;20440;-62
2022/01/03 01:21:13;;;;;;;8.20;3.50;;;;;;;9.57;100.00;100331.22;5095432;28;20020;-62
2022/01/03 01:23:41;;;;;;;11.25;4.28;;;;;;;9.62;100.00;100341.50;5093921;28;20024;-62
2022/01/03 01:28:50;;;;;;;15.35;4.25;;;;;;;9.55;100.00;100327.81;5095509;28;20042;-61
2022/01/03 01:31:20;;;;;;;18.25;4.35;;;;;;;9.51;100.00;100322.78;5091413;28;20040;-62
2022/01/03 01:33:48;;;;;;;9.70;3.85;;;;;;;9.52;100.00;100338.47;5095968;28;20067;-62
2022/01/03 01:36:14;;;;;;;19.75;5.32;;;;;;;9.49;100.00;100333.38;5106583;28;20398;-62
2022/01/03 01:38:46;;;;;;;11.60;4.35;;;;;;;9.50;100.00;100335.03;5095552;28;20031;-62
2022/01/03 01:41:11;;;;;;;13.90;4.20;;;;;;;9.53;100.00;100337.53;5076732;28;20032;-62
2022/01/03 01:43:44;;;;;;;16.13;5.25;;;;;;;9.52;100.00;100348.09;5095416;28;20035;-62
2022/01/03 01:46:13;;;;;;;10.23;4.53;;;;;;;9.53;100.00;100334.91;5093236;28;20398;-62
2022/01/03 01:48:45;;;;;;;12.60;4.20;;;;;;;9.51;100.00;100338.53;5095048;28;20066;-62
2022/01/03 01:51:12;;;;;;;15.40;3.70;;;;;;;9.40;100.00;100327.66;5095086;28;20044;-62
2022/01/03 01:53:45;;;;;;;15.63;5.10;;;;;;;9.30;100.00;100327.25;5093379;28;20492;-62
2022/01/03 01:56:16;;;;;;;12.30;4.65;;;;;;;9.27;100.00;100334.41;5095267;28;20102;-62
2022/01/03 01:59:10;;;;;;;11.52;4.20;;;;;;;9.21;100.00;100333.78;5094883;28;20060;-62
2022/01/03 02:02:08;;;;;;;13.85;4.03;;;;;;;9.15;100.00;100344.56;5094769;28;20032;-62
2022/01/03 02:04:33;;;;;;;9.77;3.83;;;;;;;9.21;100.00;100344.28;5088182;28;20036;-61
2022/01/03 02:07:19;;;;;;;20.30;4.70;;;;;;;9.15;100.00;100331.44;5095074;28;20035;-61
2022/01/03 02:09:57;;;;;;;14.57;4.20;;;;;;;9.14;100.00;100331.50;5095155;28;20035;-61
2022/01/03 02:12:26;;;;;;;11.30;4.43;;;;;;;9.13;100.00;100341.13;5076821;28;20036;-61
2022/01/03 02:14:57;;;;;;;10.48;3.95;;;;;;;9.14;100.00;100336.75;5086656;28;20032;-62
2022/01/03 02:17:22;;;;;;;11.25;4.55;;;;;;;9.10;100.00;100345.66;5094223;28;20028;-62
2022/01/03 02:20:09;;;;;;;14.55;4.32;;;;;;;9.02;100.00;100348.63;5094932;28;20035;-62
2022/01/03 02:22:36;;;;;;;18.35;3.58;;;;;;;9.02;100.00;100347.78;5093048;28;20103;-62
2022/01/03 02:25:02;;;;;;;14.57;4.38;;;;;;;8.94;100.00;100337.66;5093622;28;20050;-62
2022/01/03 02:27:28;;;;;;;14.30;4.00;;;;;;;8.99;100.00;100343.50;5092981;28;20093;-62
2022/01/03 02:29:53;;;;;;;17.23;4.90;;;;;;;9.01;100.00;100346.09;5094105;28;20390;-62
2022/01/03 02:32:19;;;;;;;12.60;3.92;;;;;;;9.05;100.00;100352.91;5094236;28;20432;-62
2022/01/03 02:34:44;;;;;;;12.85;4.72;;;;;;;9.05;100.00;100342.41;5094739;28;20028;-61
2022/01/03 02:37:10;;;;;;;10.23;3.60;;;;;;;9.05;100.00;100345.88;5094400;28;20128;-61
2022/01/03 02:39:38;;;;;;;12.40;3.78;;;;;;;9.03;100.00;100344.22;5093761;28;20043;-62
2022/01/03 02:42:04;;;;;;;12.43;4.43;;;;;;;9.00;100.00;100339.97;5089565;28;20028;-62
2022/01/03 02:44:29;;;;;;;9.20;3.88;;;;;;;8.98;100.00;100347.06;5092125;28;20035;-62
2022/01/03 02:46:54;;;;;;;12.65;4.43;;;;;;;9.02;100.00;100332.88;5092218;28;20028;-62
2022/01/03 02:49:20;;;;;;;16.23;4.25;;;;;;;8.96;100.00;100338.41;5094412;28;20422;-61
2022/01/03 02:51:46;;;;;;;12.48;4.82;;;;;;;8.92;100.00;100341.25;5094089;28;20024;-62
2022/01/03 02:54:13;;;;;;;12.80;4.47;;;;;;;8.67;100.00;100316.13;5093001;28;20066;-62
2022/01/03 02:56:42;;;;;;;13.50;4.53;;;;;;;8.86;100.00;100342.34;5093923;28;20089;-62
2022/01/03 02:59:12;;;;;;;14.27;4.72;;;;;;;8.56;100.00;100292.16;5109690;28;20028;-62
2022/01/03 03:01:43;;;;;;;16.45;4.57;;;;;;;8.91;100.00;100334.31;5092376;28;20482;-62
2022/01/03 03:04:09;;;;;;;18.10;5.05;;;;;;;8.92;100.00;100351.75;5075406;28;20123;-62
2022/01/03 03:06:34;;;;;;;13.80;4.32;;;;;;;8.81;100.00;100326.00;5093568;28;20110;-62
2022/01/03 03:09:04;;;;;;;12.73;4.95;;;;;;;8.91;100.00;100345.66;5069824;28;20043;-62
2022/01/03 03:11:34;;;;;;;13.63;4.22;;;;;;;8.93;100.00;100338.56;5093455;28;20107;-62
2022/01/03 03:14:00;;;;;;;10.07;3.72;;;;;;;9.02;100.00;100348.63;5093832;28;20024;-62
2022/01/03 03:16:25;;;;;;;16.20;5.03;;;;;;;8.98;100.00;100333.97;5093161;28;20391;-61
2022/01/03 03:18:51;;;;;;;11.63;4.72;;;;;;;9.00;100.00;100329.50;5089330;28;20028;-61
2022/01/03 03:21:17;;;;;;;12.02;3.90;;;;;;;9.04;100.00;100352.03;5089526;28;20169;-62
2022/01/03 03:23:42;;;;;;;11.45;4.95;;;;;;;9.00;100.00;100358.31;5093052;28;20052;-62
2022/01/03 03:26:09;;;;;;;10.02;4.07;;;;;;;9.04;100.00;100351.19;5093458;28;20028;-61
2022/01/03 03:28:34;;;;;;;11.55;3.95;;;;;;;9.09;100.00;100350.03;5093383;28;20024;-61
2022/01/03 03:31:09;;;;;;;13.13;4.60;;;;;;;9.10;100.00;100350.91;5092959;28;20034;-62
2022/01/03 03:33:35;;;;;;;16.60;4.25;;;;;;;9.11;100.00;100348.22;5064396;28;20849;-63
2022/01/03 03:36:01;;;;;;;14.35;3.97;;;;;;;8.99;100.00;100332.22;5074252;28;20035;-63
2022/01/03 03:38:27;;;;;;;12.80;4.28;;;;;;;9.10;100.00;100351.75;5092913;28;20028;-62
2022/01/03 03:40:57;;;;;;;10.32;4.20;;;;;;;9.11;100.00;100345.59;5093065;28;20051;-62
2022/01/03 03:43:22;;;;;;;15.57;4.18;;;;;;;9.15;100.00;100348.94;5093827;28;20390;-63
2022/01/03 03:45:51;;;;;;;9.05;3.33;;;;;;;9.15;100.00;100341.94;5092209;28;20028;-63
2022/01/03 03:48:19;;;;;;;10.93;3.30;;;;;;;9.11;100.00;100352.63;5093478;28;20150;-62
2022/01/03 03:50:46;;;;;;;10.75;4.30;;;;;;;9.09;100.00;100347.44;5091870;28;20449;-62
2022/01/03 03:53:12;;;;;;;11.15;3.72;;;;;;;9.08;100.00;100344.88;5091803;28;20505;-62
2022/01/03 03:55:38;;;;;;;9.48;3.85;;;;;;;9.13;100.00;100350.75;5074661;28;20028;-62
2022/01/03 03:58:04;;;;;;;7.82;3.95;;;;;;;9.15;100.00;100348.94;5092946;28;20034;-62
2022/01/03 04:00:30;;;;;;;9.30;3.83;;;;;;;9.13;100.00;100356.00;5092768;28;20441;-62
2022/01/03 04:02:56;;;;;;;11.40;4.35;;;;;;;9.05;100.00;100327.53;5092679;28;20047;-62
2022/01/03 04:05:22;;;;;;;14.90;5.05;;;;;;;9.18;100.00;100339.16;5092865;28;20494;-62
2022/01/03 04:07:50;;;;;;;12.15;4.60;;;;;;;9.01;100.00;100301.53;5092882;28;20028;-62
2022/01/03 04:10:16;;;;;;;10.82;4.03;;;;;;;9.27;100.00;100337.88;5092965;28;20478;-61
2022/01/03 04:12:43;;;;;;;14.70;4.32;;;;;;;9.28;100.00;100333.50;5093001;28;20035;-62
2022/01/03 04:15:12;;;;;;;8.90;3.70;;;;;;;9.26;100.00;100332.72;5092837;28;20111;-62
2022/01/03 04:17:38;;;;;;;14.20;4.45;;;;;;;9.31;100.00;100342.06;5091744;28;20503;-64
2022/01/03 04:20:05;;;;;;;15.20;4.32;;;;;;;9.34;100.00;100334.06;5092614;28;20093;-62
2022/01/03 04:22:31;;;;;;;10.38;4.22;;;;;;;9.34;100.00;100341.06;5108324;28;20032;-62
2022/01/03 04:24:56;;;;;;;16.77;5.13;;;;;;;9.34;100.00;100327.97;5092809;28;20020;-62
2022/01/03 04:27:22;;;;;;;12.75;3.85;;;;;;;9.37;100.00;100322.56;5092679;28;20031;-62
2022/01/03 04:29:47;;;;;;;21.90;4.88;;;;;;;9.37;100.00;100322.56;5092572;28;20046;-62
2022/01/03 04:32:12;;;;;;;15.13;4.82;;;;;;;9.38;100.00;100319.03;5091590;28;20048;-62
2022/01/03 04:34:38;;;;;;;10.02;4.30;;;;;;;9.40;100.00;100335.53;5091283;28;20097;-62
2022/01/03 04:37:06;;;;;;;17.42;5.63;;;;;;;9.39;100.00;100323.38;5092135;28;20056;-62
2022/01/03 04:39:33;;;;;;;11.02;4.47;;;;;;;8.89;100.00;100242.66;5092757;28;20036;-62
2022/01/03 04:41:58;;;;;;;13.38;4.45;;;;;;;9.31;100.00;100317.63;5092372;28;20056;-62
2022/01/03 04:44:23;;;;;;;19.02;5.20;;;;;;;9.31;100.00;100307.13;5092595;28;20113;-62
2022/01/03 04:46:52;;;;;;;13.07;5.03;;;;;;;9.32;100.00;100309.69;5079790;28;20028;-62
2022/01/03 04:49:18;;;;;;;12.25;4.78;;;;;;;9.26;100.00;100303.88;5083456;28;20089;-62
2022/01/03 04:51:43;;;;;;;17.80;5.00;;;;;;;9.26;100.00;100303.88;5092745;28;20134;-62
2022/01/03 04:54:08;;;;;;;12.90;4.68;;;;;;;9.28;100.00;100302.03;5092395;28;20031;-62
2022/01/03 04:56:36;;;;;;;11.35;4.75;;;;;;;9.27;100.00;100298.56;5092895;28;20556;-62
2022/01/03 04:59:03;;;;;;;11.85;4.65;;;;;;;9.29;100.00;100295.88;5092033;28;20107;-62
2022/01/03 05:01:28;;;;;;;10.23;3.90;;;;;;;9.34;100.00;100301.75;5092349;28;20024;-62
2022/01/03 05:03:54;;;;;;;14.57;4.93;;;;;;;9.35;100.00;100303.44;5095586;28;20047;-62
2022/01/03 05:06:22;;;;;;;12.82;4.75;;;;;;;9.28;100.00;100302.88;5096102;28;20048;-62
2022/01/03 05:08:48;;;;;;;9.52;3.70;;;;;;;9.30;100.00;100305.41;5096094;28;20063;-62
2022/01/03 05:11:16;;;;;;;9.38;3.70;;;;;;;9.34;100.00;100296.50;5095882;28;20063;-62
2022/01/03 05:13:41;;;;;;;12.05;3.75;;;;;;;9.28;100.00;100308.13;5095902;28;20020;-62
2022/01/03 05:16:07;;;;;;;14.98;3.70;;;;;;;9.27;100.00;100289.84;5095547;28;20444;-62
2022/01/03 05:18:33;;;;;;;11.80;4.03;;;;;;;9.34;100.00;100299.97;5078214;28;20042;-62
2022/01/03 05:20:59;;;;;;;18.15;4.65;;;;;;;9.11;100.00;100259.09;5061947;28;20032;-62
2022/01/03 05:23:24;;;;;;;15.38;4.72;;;;;;;9.26;100.00;100288.16;5066552;28;20055;-62
2022/01/03 05:25:50;;;;;;;10.90;4.57;;;;;;;8.91;100.00;100230.34;5095811;28;20102;-62
2022/01/03 05:28:16;;;;;;;13.13;3.85;;;;;;;9.28;100.00;100278.44;5095491;28;20035;-62
2022/01/03 05:30:42;;;;;;;23.05;4.53;;;;;;;9.21;100.00;100273.50;5089901;28;20028;-63
2022/01/03 05:33:07;;;;;;;13.00;4.70;;;;;;;9.33;100.00;100290.41;5095304;28;20486;-62
2022/01/03 05:35:33;;;;;;;10.82;4.28;;;;;;;9.31;100.00;100280.91;5077174;28;20039;-62
2022/01/03 05:37:58;;;;;;;10.32;4.30;;;;;;;9.34;100.00;100286.88;5095074;28;20028;-62
2022/01/03 05:40:24;;;;;;;16.83;5.03;;;;;;;9.10;100.00;100244.28;5095693;28;20027;-61
2022/01/03 05:42:50;;;;;;;15.77;5.22;;;;;;;8.90;100.00;100210.31;5095426;28;20028;-62
2022/01/03 05:45:16;;;;;;;25.10;4.53;;;;;;;9.27;100.00;100282.81;5093976;28;20041;-62
2022/01/03 05:47:44;;;;;;;13.90;4.35;;;;;;;9.24;100.00;100286.44;5095362;28;20035;-62
2022/01/03 05:50:10;;;;;;;10.35;4.13;;;;;;;9.19;100.00;100277.94;5095221;28;20189;-62
2022/01/03 05:52:36;;;;;;;11.75;4.38;;;;;;;9.27;100.00;100284.59;5095162;28;20062;-62
2022/01/03 05:55:02;;;;;;;8.07;3.80;;;;;;;9.29;100.00;100288.00;5095027;28;20475;-62
2022/01/03 05:57:27;;;;;;;11.98;4.10;;;;;;;9.34;100.00;100280.78;5092393;28;20064;-62
2022/01/03 05:59:53;;;;;;;11.80;3.83;;;;;;;9.34;100.00;100286.88;5094586;28;20506;-62
2022/01/03 06:02:18;;;;;;;15.13;4.05;;;;;;;9.31;100.00;100286.16;5094978;28;20093;-62
2022/01/03 06:07:19;;;;;;;15.25;4.30;;;;;;;9.33;100.00;100279.09;5092784;28;20042;-62
2022/01/03 06:09:44;;;;;;;15.00;5.00;;;;;;;9.29;100.00;100282.78;5094569;28;20028;-62
2022/01/03 06:12:09;;;;;;;15.10;4.40;;;;;;;8.91;100.00;100219.88;5094826;28;20039;-62
2022/01/03 06:14:37;;;;;;;13.32;4.13;;;;;;;9.27;100.00;100277.59;5075487;28;20028;-63
2022/01/03 06:17:07;;;;;;;12.30;4.22;;;;;;;9.32;100.00;100277.38;5095020;28;20031;-62
2022/01/03 06:19:33;;;;;;;17.25;4.72;;;;;;;9.30;100.00;100269.56;5093542;28;20055;-62
2022/01/03 06:21:58;;;;;;;16.13;4.43;;;;;;;9.31;100.00;100267.81;5076199;28;20032;-62
2022/01/03 06:24:24;;;;;;;14.00;5.25;;;;;;;9.28;100.00;100254.84;5094588;28;20016;-62
2022/01/03 06:26:50;;;;;;;9.32;4.53;;;;;;;9.19;100.00;100240.41;5094378;28;20031;-65
2022/01/03 06:29:18;;;;;;;18.27;4.65;;;;;;;9.28;100.00;100260.94;5094374;28;20042;-62
2022/01/03 06:31:44;;;;;;;12.50;4.38;;;;;;;9.31;100.00;100267.81;5094197;28;20501;-62
2022/01/03 06:34:09;;;;;;;11.52;4.90;;;;;;;9.35;100.00;100254.50;5094572;28;20032;-62
2022/01/03 06:36:34;;;;;;;11.00;4.68;;;;;;;9.34;100.00;100244.91;5093853;28;20474;-62
2022/01/03 06:39:00;;;;;;;7.00;3.10;;;;;;;9.11;100.00;100243.38;5093966;28;20028;-62
2022/01/03 06:41:26;;;;;;;14.15;4.70;;;;;;;9.08;100.00;100246.16;5093898;28;20099;-62
2022/01/03 06:43:52;;;;;;;9.05;3.83;;;;;;;9.04;100.00;100247.22;5093943;28;20543;-62
2022/01/03 06:46:18;;;;;;;10.85;4.38;;;;;;;8.77;100.00;100217.03;5094231;28;20032;-62
2022/01/03 06:48:43;;;;;;;14.30;4.63;;;;;;;8.90;100.00;100244.38;5090722;28;20462;-62
2022/01/03 06:51:09;;;;;;;14.07;5.30;;;;;;;8.89;100.00;100232.19;5094256;28;20032;-62
2022/01/03 06:53:35;;;;;;;17.67;4.72;;;;;;;8.55;100.00;100177.03;5075662;28;20024;-62
2022/01/03 06:56:00;;;;;;;19.33;5.00;;;;;;;8.99;100.00;100236.06;5092766;28;20441;-62
2022/01/03 06:58:26;;;;;;;27.40;6.35;;;;;;;8.90;100.00;100196.34;5094059;28;20123;-62
2022/01/03 07:00:51;;;;;;;16.95;4.53;;;;;;;9.14;100.00;100232.75;5093353;28;20478;-62
2022/01/03 07:03:16;;;;;;;11.32;4.78;;;;;;;9.04;100.00;100238.50;5093726;28;20034;-62
2022/01/03 07:05:42;;;;;;;16.58;6.50;;;;;;;8.85;100.00;100243.75;5093971;28;20386;-61
2022/01/03 07:08:07;;;;;;;14.77;4.60;;;;;;;8.66;100.00;100230.63;5093286;28;20107;-61
2022/01/03 07:10:32;;;;;;;16.85;5.18;;;;;;;8.50;100.00;100229.59;5093816;28;20406;-61
2022/01/03 07:13:00;;;;;;;16.30;5.25;;;;;;;8.46;100.00;100228.03;5093240;28;20032;-61
2022/01/03 07:20:53;;;;;;;18.43;5.13;;;;;;;8.38;100.00;100216.22;5046904;28;20135;-61
2022/01/03 07:23:19;;;;;;;28.38;5.35;;;;;;;8.42;100.00;100220.38;5048252;28;20786;-62
2022/01/03 07:25:45;;;;;;;14.68;5.55;;;;;;;8.46;100.00;100216.69;5046074;28;20150;-61
2022/01/03 07:28:12;;;;;;;21.48;5.97;;;;;;;8.55;100.00;100221.56;5046619;28;20026;-61
2022/01/03 07:30:37;;;;;;;23.80;5.38;;;;;;;8.66;100.00;100220.13;5028142;28;20028;-62
2022/01/03 07:33:02;;;;;;;11.88;4.38;;;;;;;8.75;100.00;100224.13;5044317;28;20063;-62
2022/01/03 07:35:28;;;;;;;17.65;5.38;;;;;;;8.81;100.00;100234.31;5044670;28;20023;-62
2022/01/03 07:37:53;;;;;;;15.35;5.88;;;;;;;8.83;100.00;100215.88;5046454;28;20036;-62
2022/01/03 07:40:22;;;;;;;15.18;4.93;;;;;;;8.49;100.00;100161.56;5062190;28;20028;-61
2022/01/03 07:42:47;;;;;;;23.65;6.95;;;;;;;8.99;100.00;100230.81;5044809;28;20131;-62
2022/01/03 07:45:13;;;;;;;12.07;5.15;;;;;;;8.99;100.00;100238.69;5046448;28;20032;-61
2022/01/03 07:47:39;;;;;;;8.65;4.05;;;;;;;8.98;100.00;100233.53;5027341;28;20031;-62
2022/01/03 07:50:06;;;;;;;13.25;4.35;;;;;;;9.03;100.00;100235.00;5045543;28;20031;-62
2022/01/03 07:52:31;;;;;;;11.63;4.90;;;;;;;9.06;100.00;100240.09;5046300;28;20039;-62
2022/01/03 07:55:00;;;;;;;16.60;4.60;;;;;;;8.88;100.00;100203.44;5046584;28;20036;-62
2022/01/03 07:57:25;;;;;;;15.52;4.55;;;;;;;9.06;100.00;100245.34;5046379;28;20127;-61
2022/01/03 07:59:51;;;;;;;16.30;4.75;;;;;;;9.07;100.00;100252.31;5046176;28;20023;-62
2022/01/03 08:02:18;;;;;;;10.40;4.50;;;;;;;9.17;100.00;100244.84;5046473;28;20135;-62
2022/01/03 08:04:44;;;;;;;8.77;3.80;;;;;;;9.20;100.00;100253.44;5045686;28;20032;-62
2022/01/03 08:07:10;;;;;;;13.70;4.70;;;;;;;9.20;100.00;100253.44;5044587;28;20035;-62
2022/01/03 08:09:35;;;;;;;17.55;5.05;;;;;;;9.20;100.00;100253.44;5044581;28;20044;-62
2022/01/03 08:12:01;;;;;;;15.30;4.85;;;;;;;9.29;100.00;100252.16;5046181;28;20035;-62
2022/01/03 08:14:26;;;;;;;14.50;5.10;;;;;;;9.31;100.00;100254.69;5044465;28;20870;-62
2022/01/03 08:16:52;;;;;;;14.88;4.30;;;;;;;9.29;100.00;100273.13;5025576;28;20038;-66
2022/01/03 08:19:17;;;;;;;11.57;4.53;;;;;;;9.30;100.00;100259.09;5045329;28;20193;-62
2022/01/03 08:21:43;;;;;;;15.10;4.07;;;;;;;9.39;100.00;100255.19;5046539;28;20118;-62
2022/01/03 08:24:08;;;;;;;11.05;4.53;;;;;;;9.39;100.00;100263.06;5045320;28;20930;-62
2022/01/03 08:26:35;;;;;;;14.90;3.97;;;;;;;9.44;100.00;100261.06;5029954;28;20032;-61
2022/01/03 08:29:00;;;;;;;15.07;4.25;;;;;;;9.38;100.00;100256.09;5046439;28;20028;-61
2022/01/03 08:31:26;;;;;;;12.07;3.38;;;;;;;9.34;100.00;100239.66;5029675;28;20075;-62
2022/01/03 08:33:53;;;;;;;6.80;3.45;;;;;;;9.31;100.00;100231.09;5047304;28;20952;-62
2022/01/03 08:36:19;;;;;;;7.90;3.55;;;;;;;9.47;100.00;100250.41;5045914;28;20024;-61
2022/01/03 08:38:44;;;;;;;10.52;4.07;;;;;;;9.45;100.00;100233.91;5049451;28;20066;-61
2022/01/03 08:41:09;;;;;;;12.82;3.85;;;;;;;9.30;100.00;100226.75;5033751;28;20381;-61
2022/01/03 08:43:35;;;;;;;10.40;4.05;;;;;;;9.41;100.00;100246.31;5051726;28;20439;-61
2022/01/03 08:46:00;;;;;;;10.43;3.92;;;;;;;9.38;100.00;100246.47;5051512;28;20853;-61
2022/01/03 08:48:26;;;;;;;11.60;4.55;;;;;;;9.38;100.00;100250.88;5049542;28;20847;-62
2022/01/03 08:50:51;;;;;;;11.30;4.80;;;;;;;9.36;100.00;100248.28;5049969;28;20036;-61
2022/01/03 08:53:17;;;;;;;15.18;6.78;;;;;;;9.34;100.00;100246.69;5051436;28;20908;-63
2022/01/03 08:55:42;;;;;;;19.35;7.32;;;;;;;9.31;100.00;100245.06;5049716;28;20024;-61
2022/01/03 08:58:08;;;;;;;17.35;8.30;;;;;;;9.34;100.00;100244.06;5049951;28;20036;-61
2022/01/03 09:00:34;;;;;;;20.30;6.35;;;;;;;9.37;100.00;100251.78;5050852;28;20098;-61
2022/01/03 09:02:59;;;;;;;12.90;6.50;;;;;;;9.30;100.00;100232.88;5050520;28;20063;-61
2022/01/03 09:05:24;;;;;;;13.73;7.00;;;;;;;9.45;100.00;100249.66;5049163;28;20023;-62
2022/01/03 09:07:50;;;;;;;14.57;5.10;;;;;;;9.53;100.00;100250.16;5048770;28;20028;-62
2022/01/03 09:10:15;;;;;;;12.32;5.20;;;;;;;9.51;100.00;100239.72;5049153;28;20032;-61
2022/01/03 09:12:41;;;;;;;12.30;5.28;;;;;;;9.48;100.00;100246.88;5049603;28;20045;-61
2022/01/03 09:15:06;;;;;;;7.95;3.75;;;;;;;9.46;100.00;100233.00;5050972;28;20568;-61
2022/01/03 09:17:32;;;;;;;11.68;3.90;;;;;;;9.46;100.00;100238.25;5050960;28;20041;-61
2022/01/03 09:19:57;;;;;;;15.85;4.45;;;;;;;9.42;100.00;100213.09;5050114;28;20093;-62
2022/01/03 09:22:30;;;;;;;11.30;4.78;;;;;;;9.50;100.00;100235.38;5048877;28;20036;-61
2022/01/03 09:30:05;;;;;;;;;;;;;;;9.68;100.00;100233.66;5032667;28;20043;-61
2022/01/03 09:32:31;;;;;;;7.35;3.55;;;;;;;9.73;100.00;100226.41;5049320;28;20721;-61
2022/01/03 09:34:57;;;;;;;13.68;4.70;;;;;;;9.74;100.00;100220.22;5048991;28;20919;-61
2022/01/03 09:37:23;;;;;;;13.07;4.35;;;;;;;9.77;100.00;100227.13;5047455;28;20991;-63
2022/01/03 09:39:52;;;;;;;12.02;4.93;;;;;;;9.83;100.00;100218.94;5046271;28;20034;-62
2022/01/03 09:42:28;;;;;;;14.30;5.28;;;;;;;9.89;100.00;100216.00;5047324;28;20235;-62
2022/01/03 09:44:54;;;;;;;21.42;8.45;;;;;;;9.34;100.00;100128.69;5049563;28;20050;-62
2022/01/03 09:47:20;;;;;;;13.40;4.93;;;;;;;9.90;100.00;100212.44;5046804;28;20916;-61
2022/01/03 09:49:46;;;;;;;12.48;4.68;;;;;;;9.92;100.00;100207.97;5047482;28;20024;-62
2022/01/03 09:52:14;;;;;;;13.65;4.32;;;;;;;9.95;100.00;100208.66;5049583;28;20032;-62
2022/01/03 09:54:43;;;;;;;13.43;4.90;;;;;;;9.95;100.00;100208.66;5048610;28;20085;-61
2022/01/03 09:57:09;;;;;;;23.95;5.82;;;;;;;9.98;100.00;100215.50;5063342;28;20449;-62
2022/01/03 09:59:36;;;;;;;19.40;5.28;;;;;;;9.95;100.00;100210.44;5031187;28;20039;-62
2022/01/03 10:02:04;;;;;;;18.20;4.30;;;;;;;9.99;100.00;100212.81;5048326;28;20020;-62
2022/01/03 10:04:32;;;;;;;9.23;4.03;;;;;;;10.02;100.00;100217.91;5048487;28;20024;-61
2022/01/03 10:07:04;;;;;;;8.52;4.15;;;;;;;9.73;100.00;100155.56;5048935;28;20157;-61
2022/01/03 10:09:30;;;;;;;15.80;4.05;;;;;;;10.17;100.00;100206.66;5046661;28;20020;-62
2022/01/03 10:11:55;;;;;;;10.10;3.80;;;;;;;10.28;100.00;100206.09;5046074;28;20139;-62
2022/01/03 10:14:20;;;;;;;11.68;3.85;;;;;;;10.29;100.00;100213.06;5046492;28;20931;-61
2022/01/03 10:16:46;;;;;;;9.98;3.92;;;;;;;10.32;100.00;100212.03;5047608;28;20032;-62
2022/01/03 10:19:15;;;;;;;10.15;3.88;;;;;;;10.39;100.00;100200.28;5046119;28;20933;-62
2022/01/03 10:21:48;;;;;;;9.65;3.55;;;;;;;10.39;100.00;100200.28;5046636;28;20143;-62
2022/01/03 10:24:15;;;;;;;12.02;3.78;;;;;;;10.37;100.00;100197.75;5045313;28;20037;-61
2022/01/03 10:26:42;;;;;;;12.77;3.95;;;;;;;10.35;100.00;100207.47;5047668;28;20062;-61
2022/01/03 10:29:15;;;;;;;13.43;3.80;;;;;;;10.35;100.00;100209.25;5047799;28;20420;-62
2022/01/03 10:31:43;;;;;;;9.27;2.80;;;;;;;10.34;100.00;100203.19;5053404;28;20104;-61
2022/01/03 10:34:10;;;;;;;8.73;3.22;;;;;;;10.31;100.00;100205.13;5079085;28;20036;-61
2022/01/03 10:36:38;;;;;;;15.98;4.05;;;;;;;10.37;100.00;100207.41;5062015;28;20024;-61
2022/01/03 10:39:22;;;;;;;9.25;4.07;;;;;;;10.45;100.00;100189.44;5070460;28;20102;-61
2022/01/03 10:41:50;;;;;;;15.43;3.42;;;;;;;10.55;100.00;100180.16;5047400;28;20929;-61
2022/01/03 10:44:42;;;;;;;8.98;3.78;;;;;;;10.56;100.00;100176.59;5050446;28;20086;-59
2022/01/03 10:47:14;;;;;;;7.95;3.63;;;;;;;10.48;100.00;100173.53;5019399;28;20849;-59
2022/01/03 10:49:41;;;;;;;14.80;4.45;;;;;;;10.48;100.00;100177.00;5048938;28;20024;-59
2022/01/03 10:52:19;;;;;;;14.27;3.55;;;;;;;10.46;100.00;100185.91;5069497;28;20061;-61
2022/01/03 10:55:06;;;;;;;9.52;3.85;;;;;;;10.44;100.00;100166.75;5046807;28;20393;-62
2022/01/03 10:58:05;;;;;;;6.13;2.55;;;;;;;10.32;100.00;100163.00;5057579;28;20612;-61
2022/01/03 11:00:31;;;;;;;11.43;4.18;;;;;;;10.27;100.00;100161.56;5006885;28;20040;-61
2022/01/03 11:05:49;;;;;;;20.02;4.80;;;;;;;10.17;100.00;100154.13;5081182;28;20051;-62
2022/01/03 11:10:59;;;;;;;16.30;5.10;;;;;;;10.05;100.00;100133.75;5083399;28;20050;-61
2022/01/03 11:13:27;;;;;;;17.50;4.68;;;;;;;10.12;100.00;100148.25;5060755;28;20024;-61
2022/01/03 11:15:54;;;;;;;11.10;4.30;;;;;;;10.11;100.00;100151.81;5074195;28;20189;-62
2022/01/03 11:18:31;;;;;;;14.77;5.57;;;;;;;10.04;100.00;100145.19;5073116;28;20947;-62
2022/01/03 11:21:06;;;;;;;17.42;5.35;;;;;;;9.93;100.00;100139.66;5089449;28;20055;-62
2022/01/03 11:23:31;;;;;;;26.00;5.28;;;;;;;9.78;100.00;100140.44;5086342;28;20060;-62
2022/01/03 11:25:58;;;;;;;9.25;4.25;;;;;;;9.69;100.00;100143.53;5092834;28;20028;-62
2022/01/03 11:28:26;;;;;;;19.52;5.88;;;;;;;9.61;100.00;100137.81;5074123;28;20059;-62
2022/01/03 11:30:53;;;;;;;13.82;4.88;;;;;;;9.51;100.00;100152.31;5078496;28;20493;-62
2022/01/03 11:33:19;;;;;;;17.58;5.65;;;;;;;9.36;100.00;100156.53;5079870;28;20883;-62
2022/01/03 11:35:49;;;;;;;16.08;5.95;;;;;;;9.20;100.00;100158.22;5054339;28;20088;-62
2022/01/03 11:38:23;;;;;;;22.17;6.72;;;;;;;9.07;100.00;100139.59;5077799;28;20830;-61
2022/01/03 11:40:49;;;;;;;;;;;;;;;8.96;100.00;100147.13;5071865;28;20032;-61